sensor_id;sensor_type;location;lat;lon;timestamp;P1;durP1;ratioP1;P2;durP2;ratioP2
58366;SDS011;57745;42.524;12.052;2023-04-25T00:00:16;6.35;;;1.30;;
58366;SDS011;57745;42.524;12.052;2023-04-25T00:02:42;5.50;;;1.52;;
58366;SDS011;57745;42.524;12.052;2023-04-25T00:05:07;9.13;;;2.08;;
58366;SDS011;57745;42.524;12.052;2023-04-25T00:07:34;5.60;;;2.10;;
58366;SDS011;57745;42.524;12.052;2023-04-25T00:09:59;4.18;;;2.03;;
58366;SDS011;57745;42.524;12.052;2023-04-25T00:12:25;7.20;;;2.20;;
58366;SDS011;57745;42.524;12.052;2023-04-25T00:14:53;5.68;;;2.08;;
58366;SDS011;57745;42.524;12.052;2023-04-25T00:17:22;6.22;;;2.40;;
58366;SDS011;57745;42.524;12.052;2023-04-25T00:19:49;5.35;;;2.60;;
58366;SDS011;57745;42.524;12.052;2023-04-25T00:22:15;6.75;;;2.33;;
58366;SDS011;57745;42.524;12.052;2023-04-25T00:24:41;6.63;;;2.35;;
58366;SDS011;57745;42.524;12.052;2023-04-25T00:27:07;8.63;;;2.20;;
58366;SDS011;57745;42.524;12.052;2023-04-25T00:29:32;7.72;;;2.95;;
58366;SDS011;57745;42.524;12.052;2023-04-25T00:31:58;8.80;;;2.50;;
58366;SDS011;57745;42.524;12.052;2023-04-25T00:34:23;6.25;;;2.08;;
58366;SDS011;57745;42.524;12.052;2023-04-25T00:36:49;7.35;;;2.50;;
58366;SDS011;57745;42.524;12.052;2023-04-25T00:39:14;7.32;;;2.55;;
58366;SDS011;57745;42.524;12.052;2023-04-25T00:41:40;10.38;;;3.10;;
58366;SDS011;57745;42.524;12.052;2023-04-25T00:44:05;9.55;;;2.90;;
58366;SDS011;57745;42.524;12.052;2023-04-25T00:46:34;9.05;;;2.80;;
58366;SDS011;57745;42.524;12.052;2023-04-25T00:49:00;12.27;;;3.28;;
58366;SDS011;57745;42.524;12.052;2023-04-25T00:51:26;6.80;;;2.33;;
58366;SDS011;57745;42.524;12.052;2023-04-25T00:53:51;10.95;;;3.58;;
58366;SDS011;57745;42.524;12.052;2023-04-25T00:56:17;11.90;;;3.22;;
58366;SDS011;57745;42.524;12.052;2023-04-25T00:58:43;7.25;;;3.03;;
58366;SDS011;57745;42.524;12.052;2023-04-25T01:01:10;9.75;;;3.65;;
58366;SDS011;57745;42.524;12.052;2023-04-25T01:03:37;10.93;;;3.80;;
58366;SDS011;57745;42.524;12.052;2023-04-25T01:06:07;10.85;;;3.80;;
58366;SDS011;57745;42.524;12.052;2023-04-25T01:08:34;9.30;;;3.88;;
58366;SDS011;57745;42.524;12.052;2023-04-25T01:11:00;14.88;;;5.13;;
58366;SDS011;57745;42.524;12.052;2023-04-25T01:13:26;13.15;;;4.13;;
58366;SDS011;57745;42.524;12.052;2023-04-25T01:15:51;10.90;;;4.70;;
58366;SDS011;57745;42.524;12.052;2023-04-25T01:18:17;11.27;;;4.15;;
58366;SDS011;57745;42.524;12.052;2023-04-25T01:20:44;9.82;;;4.28;;
58366;SDS011;57745;42.524;12.052;2023-04-25T01:23:11;7.57;;;3.88;;
58366;SDS011;57745;42.524;12.052;2023-04-25T01:25:37;9.10;;;3.83;;
58366;SDS011;57745;42.524;12.052;2023-04-25T01:28:04;8.35;;;3.92;;
58366;SDS011;57745;42.524;12.052;2023-04-25T01:30:30;6.68;;;3.50;;
58366;SDS011;57745;42.524;12.052;2023-04-25T01:32:56;8.23;;;3.63;;
58366;SDS011;57745;42.524;12.052;2023-04-25T01:35:22;7.60;;;3.80;;
58366;SDS011;57745;42.524;12.052;2023-04-25T01:37:49;6.05;;;3.00;;
58366;SDS011;57745;42.524;12.052;2023-04-25T01:40:14;5.70;;;3.35;;
58366;SDS011;57745;42.524;12.052;2023-04-25T01:42:41;6.82;;;3.30;;
58366;SDS011;57745;42.524;12.052;2023-04-25T01:45:07;9.18;;;4.07;;
58366;SDS011;57745;42.524;12.052;2023-04-25T01:47:34;7.50;;;3.40;;
58366;SDS011;57745;42.524;12.052;2023-04-25T01:50:00;6.75;;;3.78;;
58366;SDS011;57745;42.524;12.052;2023-04-25T01:52:29;7.32;;;3.53;;
58366;SDS011;57745;42.524;12.052;2023-04-25T01:54:55;4.43;;;2.80;;
58366;SDS011;57745;42.524;12.052;2023-04-25T01:57:22;4.32;;;2.88;;
58366;SDS011;57745;42.524;12.052;2023-04-25T01:59:47;4.93;;;3.20;;
58366;SDS011;57745;42.524;12.052;2023-04-25T02:02:14;4.65;;;2.65;;
58366;SDS011;57745;42.524;12.052;2023-04-25T02:04:39;4.47;;;2.78;;
58366;SDS011;57745;42.524;12.052;2023-04-25T02:07:04;4.72;;;2.53;;
58366;SDS011;57745;42.524;12.052;2023-04-25T02:09:30;3.55;;;2.70;;
58366;SDS011;57745;42.524;12.052;2023-04-25T02:11:55;5.15;;;2.90;;
58366;SDS011;57745;42.524;12.052;2023-04-25T02:14:21;4.43;;;3.03;;
58366;SDS011;57745;42.524;12.052;2023-04-25T02:16:46;4.53;;;2.70;;
58366;SDS011;57745;42.524;12.052;2023-04-25T02:19:12;4.47;;;3.10;;
58366;SDS011;57745;42.524;12.052;2023-04-25T02:21:37;4.07;;;2.58;;
58366;SDS011;57745;42.524;12.052;2023-04-25T02:24:03;6.85;;;2.70;;
58366;SDS011;57745;42.524;12.052;2023-04-25T02:26:29;3.80;;;2.50;;
58366;SDS011;57745;42.524;12.052;2023-04-25T02:28:55;2.70;;;2.13;;
58366;SDS011;57745;42.524;12.052;2023-04-25T02:31:21;5.22;;;2.42;;
58366;SDS011;57745;42.524;12.052;2023-04-25T02:33:47;3.35;;;2.03;;
58366;SDS011;57745;42.524;12.052;2023-04-25T02:36:13;4.95;;;2.58;;
58366;SDS011;57745;42.524;12.052;2023-04-25T02:38:38;5.00;;;2.63;;
58366;SDS011;57745;42.524;12.052;2023-04-25T02:41:03;4.28;;;1.92;;
58366;SDS011;57745;42.524;12.052;2023-04-25T02:43:29;3.72;;;2.05;;
58366;SDS011;57745;42.524;12.052;2023-04-25T02:45:54;4.47;;;2.25;;
58366;SDS011;57745;42.524;12.052;2023-04-25T02:48:20;4.90;;;1.77;;
58366;SDS011;57745;42.524;12.052;2023-04-25T02:50:45;3.63;;;1.65;;
58366;SDS011;57745;42.524;12.052;2023-04-25T02:53:11;4.70;;;2.15;;
58366;SDS011;57745;42.524;12.052;2023-04-25T02:55:36;6.10;;;2.30;;
58366;SDS011;57745;42.524;12.052;2023-04-25T02:58:02;7.15;;;2.50;;
58366;SDS011;57745;42.524;12.052;2023-04-25T03:00:27;5.95;;;2.45;;
58366;SDS011;57745;42.524;12.052;2023-04-25T03:02:53;5.78;;;2.45;;
58366;SDS011;57745;42.524;12.052;2023-04-25T03:05:18;8.35;;;2.63;;
58366;SDS011;57745;42.524;12.052;2023-04-25T03:07:44;4.57;;;2.17;;
58366;SDS011;57745;42.524;12.052;2023-04-25T03:10:11;4.50;;;2.05;;
58366;SDS011;57745;42.524;12.052;2023-04-25T03:12:36;5.53;;;1.50;;
58366;SDS011;57745;42.524;12.052;2023-04-25T03:15:02;7.28;;;2.20;;
58366;SDS011;57745;42.524;12.052;2023-04-25T03:17:28;6.50;;;2.65;;
58366;SDS011;57745;42.524;12.052;2023-04-25T03:19:54;6.40;;;2.58;;
58366;SDS011;57745;42.524;12.052;2023-04-25T03:22:20;6.97;;;3.22;;
58366;SDS011;57745;42.524;12.052;2023-04-25T03:24:46;3.33;;;2.55;;
58366;SDS011;57745;42.524;12.052;2023-04-25T03:27:12;5.55;;;2.83;;
58366;SDS011;57745;42.524;12.052;2023-04-25T03:29:37;3.78;;;2.58;;
58366;SDS011;57745;42.524;12.052;2023-04-25T03:32:03;5.45;;;2.72;;
58366;SDS011;57745;42.524;12.052;2023-04-25T03:34:28;4.18;;;2.35;;
58366;SDS011;57745;42.524;12.052;2023-04-25T03:36:54;3.78;;;2.13;;
58366;SDS011;57745;42.524;12.052;2023-04-25T03:39:19;4.00;;;2.50;;
58366;SDS011;57745;42.524;12.052;2023-04-25T03:41:44;3.40;;;2.08;;
58366;SDS011;57745;42.524;12.052;2023-04-25T03:44:10;2.88;;;2.08;;
58366;SDS011;57745;42.524;12.052;2023-04-25T03:46:37;4.03;;;2.20;;
58366;SDS011;57745;42.524;12.052;2023-04-25T03:49:02;3.42;;;2.00;;
58366;SDS011;57745;42.524;12.052;2023-04-25T03:51:27;2.00;;;1.80;;
58366;SDS011;57745;42.524;12.052;2023-04-25T03:57:15;2.63;;;2.03;;
58366;SDS011;57745;42.524;12.052;2023-04-25T03:59:40;3.50;;;2.17;;
58366;SDS011;57745;42.524;12.052;2023-04-25T04:02:06;3.45;;;2.47;;
58366;SDS011;57745;42.524;12.052;2023-04-25T04:04:31;4.25;;;2.70;;
58366;SDS011;57745;42.524;12.052;2023-04-25T04:06:56;5.88;;;2.65;;
58366;SDS011;57745;42.524;12.052;2023-04-25T04:09:22;6.93;;;3.40;;
58366;SDS011;57745;42.524;12.052;2023-04-25T04:11:47;7.63;;;3.10;;
58366;SDS011;57745;42.524;12.052;2023-04-25T04:14:13;5.63;;;2.72;;
58366;SDS011;57745;42.524;12.052;2023-04-25T04:16:38;4.82;;;2.90;;
58366;SDS011;57745;42.524;12.052;2023-04-25T04:19:04;5.55;;;2.70;;
58366;SDS011;57745;42.524;12.052;2023-04-25T04:21:29;4.35;;;2.33;;
58366;SDS011;57745;42.524;12.052;2023-04-25T04:23:55;5.18;;;2.40;;
58366;SDS011;57745;42.524;12.052;2023-04-25T04:26:20;4.90;;;2.45;;
58366;SDS011;57745;42.524;12.052;2023-04-25T04:28:50;5.80;;;2.30;;
58366;SDS011;57745;42.524;12.052;2023-04-25T04:31:22;4.00;;;2.30;;
58366;SDS011;57745;42.524;12.052;2023-04-25T04:33:49;2.88;;;1.77;;
58366;SDS011;57745;42.524;12.052;2023-04-25T04:36:14;4.45;;;2.05;;
58366;SDS011;57745;42.524;12.052;2023-04-25T04:38:40;3.97;;;1.60;;
58366;SDS011;57745;42.524;12.052;2023-04-25T04:41:07;3.45;;;2.00;;
58366;SDS011;57745;42.524;12.052;2023-04-25T04:43:33;2.67;;;1.65;;
58366;SDS011;57745;42.524;12.052;2023-04-25T04:46:00;3.10;;;1.63;;
58366;SDS011;57745;42.524;12.052;2023-04-25T04:48:26;2.47;;;1.50;;
58366;SDS011;57745;42.524;12.052;2023-04-25T04:50:51;2.90;;;1.40;;
58366;SDS011;57745;42.524;12.052;2023-04-25T04:53:17;2.83;;;1.35;;
58366;SDS011;57745;42.524;12.052;2023-04-25T04:55:42;3.63;;;1.50;;
58366;SDS011;57745;42.524;12.052;2023-04-25T04:58:08;4.25;;;1.63;;
58366;SDS011;57745;42.524;12.052;2023-04-25T05:00:33;3.53;;;1.92;;
58366;SDS011;57745;42.524;12.052;2023-04-25T05:02:59;5.40;;;1.55;;
58366;SDS011;57745;42.524;12.052;2023-04-25T05:05:24;4.32;;;1.60;;
58366;SDS011;57745;42.524;12.052;2023-04-25T05:07:50;4.75;;;1.60;;
58366;SDS011;57745;42.524;12.052;2023-04-25T05:10:16;7.18;;;2.05;;
58366;SDS011;57745;42.524;12.052;2023-04-25T05:12:43;4.10;;;1.55;;
58366;SDS011;57745;42.524;12.052;2023-04-25T05:15:09;5.85;;;1.75;;
58366;SDS011;57745;42.524;12.052;2023-04-25T05:17:34;9.25;;;2.00;;
58366;SDS011;57745;42.524;12.052;2023-04-25T05:20:00;5.53;;;1.75;;
58366;SDS011;57745;42.524;12.052;2023-04-25T05:22:25;7.88;;;1.70;;
58366;SDS011;57745;42.524;12.052;2023-04-25T05:24:51;6.07;;;1.50;;
58366;SDS011;57745;42.524;12.052;2023-04-25T05:27:17;11.50;;;2.03;;
58366;SDS011;57745;42.524;12.052;2023-04-25T05:29:43;8.40;;;2.20;;
58366;SDS011;57745;42.524;12.052;2023-04-25T05:32:09;9.15;;;2.10;;
58366;SDS011;57745;42.524;12.052;2023-04-25T05:34:34;8.30;;;1.90;;
58366;SDS011;57745;42.524;12.052;2023-04-25T05:37:00;8.27;;;2.00;;
58366;SDS011;57745;42.524;12.052;2023-04-25T05:39:25;15.10;;;2.35;;
58366;SDS011;57745;42.524;12.052;2023-04-25T05:41:51;6.35;;;2.38;;
58366;SDS011;57745;42.524;12.052;2023-04-25T05:44:16;10.38;;;2.40;;
58366;SDS011;57745;42.524;12.052;2023-04-25T05:46:42;7.03;;;1.92;;
58366;SDS011;57745;42.524;12.052;2023-04-25T05:49:08;7.35;;;1.73;;
58366;SDS011;57745;42.524;12.052;2023-04-25T05:51:33;7.18;;;2.22;;
58366;SDS011;57745;42.524;12.052;2023-04-25T05:53:58;8.30;;;2.47;;
58366;SDS011;57745;42.524;12.052;2023-04-25T05:56:24;12.95;;;2.40;;
58366;SDS011;57745;42.524;12.052;2023-04-25T05:58:49;12.48;;;2.38;;
58366;SDS011;57745;42.524;12.052;2023-04-25T06:01:15;8.00;;;2.03;;
58366;SDS011;57745;42.524;12.052;2023-04-25T06:03:41;6.18;;;2.03;;
58366;SDS011;57745;42.524;12.052;2023-04-25T06:06:08;6.93;;;2.10;;
58366;SDS011;57745;42.524;12.052;2023-04-25T06:08:34;4.78;;;2.05;;
58366;SDS011;57745;42.524;12.052;2023-04-25T06:10:59;9.13;;;2.28;;
58366;SDS011;57745;42.524;12.052;2023-04-25T06:13:25;8.40;;;2.33;;
58366;SDS011;57745;42.524;12.052;2023-04-25T06:15:50;4.30;;;2.22;;
58366;SDS011;57745;42.524;12.052;2023-04-25T06:18:16;4.57;;;2.25;;
58366;SDS011;57745;42.524;12.052;2023-04-25T06:20:41;5.32;;;2.20;;
58366;SDS011;57745;42.524;12.052;2023-04-25T06:23:07;7.90;;;2.58;;
58366;SDS011;57745;42.524;12.052;2023-04-25T06:25:32;10.43;;;2.20;;
58366;SDS011;57745;42.524;12.052;2023-04-25T06:27:57;6.97;;;2.35;;
58366;SDS011;57745;42.524;12.052;2023-04-25T06:30:23;6.90;;;2.22;;
58366;SDS011;57745;42.524;12.052;2023-04-25T06:32:50;5.38;;;2.00;;
58366;SDS011;57745;42.524;12.052;2023-04-25T06:35:19;5.60;;;2.20;;
58366;SDS011;57745;42.524;12.052;2023-04-25T06:37:45;9.55;;;2.17;;
58366;SDS011;57745;42.524;12.052;2023-04-25T06:40:11;10.05;;;2.42;;
58366;SDS011;57745;42.524;12.052;2023-04-25T06:42:36;9.68;;;2.83;;
58366;SDS011;57745;42.524;12.052;2023-04-25T06:45:02;5.85;;;2.30;;
58366;SDS011;57745;42.524;12.052;2023-04-25T06:47:28;8.73;;;2.70;;
58366;SDS011;57745;42.524;12.052;2023-04-25T06:49:54;9.43;;;2.75;;
58366;SDS011;57745;42.524;12.052;2023-04-25T06:52:20;9.50;;;2.83;;
58366;SDS011;57745;42.524;12.052;2023-04-25T06:54:49;11.18;;;2.67;;
58366;SDS011;57745;42.524;12.052;2023-04-25T06:57:15;8.98;;;3.10;;
58366;SDS011;57745;42.524;12.052;2023-04-25T06:59:40;9.77;;;2.70;;
58366;SDS011;57745;42.524;12.052;2023-04-25T07:02:05;15.52;;;5.40;;
58366;SDS011;57745;42.524;12.052;2023-04-25T07:04:31;15.18;;;4.10;;
58366;SDS011;57745;42.524;12.052;2023-04-25T07:06:56;12.25;;;4.47;;
58366;SDS011;57745;42.524;12.052;2023-04-25T07:09:22;9.38;;;2.63;;
58366;SDS011;57745;42.524;12.052;2023-04-25T07:11:47;8.15;;;2.45;;
58366;SDS011;57745;42.524;12.052;2023-04-25T07:14:13;7.57;;;2.17;;
58366;SDS011;57745;42.524;12.052;2023-04-25T07:16:38;9.80;;;2.75;;
58366;SDS011;57745;42.524;12.052;2023-04-25T07:19:04;10.02;;;2.00;;
58366;SDS011;57745;42.524;12.052;2023-04-25T07:21:29;8.20;;;1.83;;
58366;SDS011;57745;42.524;12.052;2023-04-25T07:23:56;11.57;;;2.03;;
58366;SDS011;57745;42.524;12.052;2023-04-25T07:26:21;11.57;;;2.85;;
58366;SDS011;57745;42.524;12.052;2023-04-25T07:28:46;12.50;;;2.55;;
58366;SDS011;57745;42.524;12.052;2023-04-25T07:31:15;10.75;;;2.33;;
58366;SDS011;57745;42.524;12.052;2023-04-25T07:33:43;12.98;;;2.63;;
58366;SDS011;57745;42.524;12.052;2023-04-25T07:36:09;10.02;;;2.30;;
58366;SDS011;57745;42.524;12.052;2023-04-25T07:38:34;9.45;;;2.10;;
58366;SDS011;57745;42.524;12.052;2023-04-25T07:40:59;8.35;;;2.15;;
58366;SDS011;57745;42.524;12.052;2023-04-25T07:43:25;9.48;;;2.38;;
58366;SDS011;57745;42.524;12.052;2023-04-25T07:45:51;10.30;;;2.65;;
58366;SDS011;57745;42.524;12.052;2023-04-25T07:48:16;12.90;;;2.63;;
58366;SDS011;57745;42.524;12.052;2023-04-25T07:50:45;11.10;;;2.78;;
58366;SDS011;57745;42.524;12.052;2023-04-25T07:53:11;10.00;;;2.33;;
58366;SDS011;57745;42.524;12.052;2023-04-25T07:55:36;8.20;;;1.95;;
58366;SDS011;57745;42.524;12.052;2023-04-25T07:58:05;9.82;;;2.22;;
58366;SDS011;57745;42.524;12.052;2023-04-25T08:00:31;12.63;;;2.65;;
58366;SDS011;57745;42.524;12.052;2023-04-25T08:02:56;14.07;;;2.38;;
58366;SDS011;57745;42.524;12.052;2023-04-25T08:05:21;11.65;;;2.58;;
58366;SDS011;57745;42.524;12.052;2023-04-25T08:07:47;8.85;;;2.30;;
58366;SDS011;57745;42.524;12.052;2023-04-25T08:10:12;8.15;;;1.88;;
58366;SDS011;57745;42.524;12.052;2023-04-25T08:12:38;10.88;;;2.00;;
58366;SDS011;57745;42.524;12.052;2023-04-25T08:15:03;11.15;;;2.08;;
58366;SDS011;57745;42.524;12.052;2023-04-25T08:17:30;10.05;;;2.70;;
58366;SDS011;57745;42.524;12.052;2023-04-25T08:19:55;12.18;;;2.17;;
58366;SDS011;57745;42.524;12.052;2023-04-25T08:22:22;13.85;;;2.88;;
58366;SDS011;57745;42.524;12.052;2023-04-25T08:24:47;9.25;;;2.08;;
58366;SDS011;57745;42.524;12.052;2023-04-25T08:27:13;10.82;;;2.20;;
58366;SDS011;57745;42.524;12.052;2023-04-25T08:29:38;11.40;;;2.78;;
58366;SDS011;57745;42.524;12.052;2023-04-25T08:32:04;11.95;;;2.42;;
58366;SDS011;57745;42.524;12.052;2023-04-25T08:34:29;9.70;;;2.28;;
58366;SDS011;57745;42.524;12.052;2023-04-25T08:36:54;11.88;;;3.67;;
58366;SDS011;57745;42.524;12.052;2023-04-25T08:39:20;7.18;;;2.50;;
58366;SDS011;57745;42.524;12.052;2023-04-25T08:41:52;10.82;;;2.55;;
58366;SDS011;57745;42.524;12.052;2023-04-25T08:44:18;10.88;;;2.92;;
58366;SDS011;57745;42.524;12.052;2023-04-25T08:46:46;7.88;;;2.35;;
58366;SDS011;57745;42.524;12.052;2023-04-25T08:49:14;7.30;;;2.65;;
58366;SDS011;57745;42.524;12.052;2023-04-25T08:51:45;8.65;;;2.25;;
58366;SDS011;57745;42.524;12.052;2023-04-25T08:54:12;11.55;;;3.00;;
58366;SDS011;57745;42.524;12.052;2023-04-25T08:56:40;6.80;;;2.20;;
58366;SDS011;57745;42.524;12.052;2023-04-25T08:59:09;13.02;;;2.35;;
58366;SDS011;57745;42.524;12.052;2023-04-25T09:01:36;10.20;;;2.67;;
58366;SDS011;57745;42.524;12.052;2023-04-25T09:04:02;7.43;;;2.35;;
58366;SDS011;57745;42.524;12.052;2023-04-25T09:06:28;12.43;;;2.13;;
58366;SDS011;57745;42.524;12.052;2023-04-25T09:08:55;7.85;;;2.40;;
58366;SDS011;57745;42.524;12.052;2023-04-25T09:11:28;5.80;;;2.00;;
58366;SDS011;57745;42.524;12.052;2023-04-25T09:14:09;7.30;;;2.28;;
58366;SDS011;57745;42.524;12.052;2023-04-25T09:16:38;11.45;;;2.95;;
58366;SDS011;57745;42.524;12.052;2023-04-25T09:19:28;9.00;;;2.22;;
58366;SDS011;57745;42.524;12.052;2023-04-25T09:21:56;11.52;;;2.83;;
58366;SDS011;57745;42.524;12.052;2023-04-25T09:24:30;7.22;;;1.90;;
58366;SDS011;57745;42.524;12.052;2023-04-25T09:26:58;9.95;;;2.40;;
58366;SDS011;57745;42.524;12.052;2023-04-25T09:29:41;10.10;;;1.88;;
58366;SDS011;57745;42.524;12.052;2023-04-25T09:34:39;8.25;;;2.22;;
58366;SDS011;57745;42.524;12.052;2023-04-25T09:37:06;9.73;;;1.95;;
58366;SDS011;57745;42.524;12.052;2023-04-25T09:39:35;8.45;;;2.03;;
58366;SDS011;57745;42.524;12.052;2023-04-25T09:42:02;7.47;;;1.65;;
58366;SDS011;57745;42.524;12.052;2023-04-25T09:44:28;9.90;;;2.20;;
58366;SDS011;57745;42.524;12.052;2023-04-25T09:46:53;7.50;;;1.85;;
58366;SDS011;57745;42.524;12.052;2023-04-25T09:49:19;5.72;;;1.75;;
58366;SDS011;57745;42.524;12.052;2023-04-25T09:51:57;8.85;;;1.90;;
58366;SDS011;57745;42.524;12.052;2023-04-25T09:54:26;11.45;;;2.00;;
58366;SDS011;57745;42.524;12.052;2023-04-25T09:56:52;8.15;;;1.75;;
58366;SDS011;57745;42.524;12.052;2023-04-25T09:59:20;8.32;;;2.33;;
58366;SDS011;57745;42.524;12.052;2023-04-25T10:01:47;14.27;;;2.53;;
58366;SDS011;57745;42.524;12.052;2023-04-25T10:04:16;10.77;;;2.72;;
58366;SDS011;57745;42.524;12.052;2023-04-25T10:06:46;11.57;;;2.17;;
58366;SDS011;57745;42.524;12.052;2023-04-25T10:09:14;6.85;;;2.45;;
58366;SDS011;57745;42.524;12.052;2023-04-25T10:11:40;9.27;;;2.45;;
58366;SDS011;57745;42.524;12.052;2023-04-25T10:14:06;9.77;;;2.13;;
58366;SDS011;57745;42.524;12.052;2023-04-25T10:16:32;6.65;;;2.40;;
58366;SDS011;57745;42.524;12.052;2023-04-25T10:18:58;8.25;;;2.40;;
58366;SDS011;57745;42.524;12.052;2023-04-25T10:21:24;9.07;;;2.55;;
58366;SDS011;57745;42.524;12.052;2023-04-25T10:23:51;8.80;;;2.33;;
58366;SDS011;57745;42.524;12.052;2023-04-25T10:26:18;10.18;;;2.17;;
58366;SDS011;57745;42.524;12.052;2023-04-25T10:31:30;8.13;;;2.05;;
58366;SDS011;57745;42.524;12.052;2023-04-25T10:33:56;10.32;;;2.92;;
58366;SDS011;57745;42.524;12.052;2023-04-25T10:36:22;7.97;;;2.17;;
58366;SDS011;57745;42.524;12.052;2023-04-25T10:38:49;7.85;;;2.10;;
58366;SDS011;57745;42.524;12.052;2023-04-25T10:41:17;11.93;;;2.42;;
58366;SDS011;57745;42.524;12.052;2023-04-25T10:43:43;5.85;;;2.72;;
58366;SDS011;57745;42.524;12.052;2023-04-25T10:48:43;4.72;;;1.90;;
58366;SDS011;57745;42.524;12.052;2023-04-25T10:51:18;8.50;;;2.03;;
58366;SDS011;57745;42.524;12.052;2023-04-25T10:53:46;8.13;;;1.90;;
58366;SDS011;57745;42.524;12.052;2023-04-25T10:56:21;7.43;;;1.75;;
58366;SDS011;57745;42.524;12.052;2023-04-25T11:01:45;10.25;;;2.60;;
58366;SDS011;57745;42.524;12.052;2023-04-25T11:04:22;9.32;;;1.98;;
58366;SDS011;57745;42.524;12.052;2023-04-25T11:06:55;8.98;;;1.85;;
58366;SDS011;57745;42.524;12.052;2023-04-25T11:09:27;8.20;;;1.60;;
58366;SDS011;57745;42.524;12.052;2023-04-25T11:11:56;4.55;;;1.60;;
58366;SDS011;57745;42.524;12.052;2023-04-25T11:14:23;7.43;;;1.63;;
58366;SDS011;57745;42.524;12.052;2023-04-25T11:16:55;4.97;;;1.23;;
58366;SDS011;57745;42.524;12.052;2023-04-25T11:19:22;8.00;;;2.13;;
58366;SDS011;57745;42.524;12.052;2023-04-25T11:21:48;3.75;;;1.08;;
58366;SDS011;57745;42.524;12.052;2023-04-25T11:24:13;6.15;;;1.20;;
58366;SDS011;57745;42.524;12.052;2023-04-25T11:26:41;6.75;;;1.40;;
58366;SDS011;57745;42.524;12.052;2023-04-25T11:29:07;6.00;;;1.70;;
58366;SDS011;57745;42.524;12.052;2023-04-25T11:31:33;11.52;;;2.40;;
58366;SDS011;57745;42.524;12.052;2023-04-25T11:33:58;8.05;;;1.67;;
58366;SDS011;57745;42.524;12.052;2023-04-25T11:36:25;6.68;;;1.48;;
58366;SDS011;57745;42.524;12.052;2023-04-25T11:38:51;7.07;;;1.92;;
58366;SDS011;57745;42.524;12.052;2023-04-25T11:41:18;10.25;;;2.38;;
58366;SDS011;57745;42.524;12.052;2023-04-25T11:43:44;6.68;;;1.58;;
58366;SDS011;57745;42.524;12.052;2023-04-25T11:46:09;6.68;;;1.90;;
58366;SDS011;57745;42.524;12.052;2023-04-25T11:48:38;5.85;;;1.40;;
58366;SDS011;57745;42.524;12.052;2023-04-25T11:51:04;8.32;;;2.13;;
58366;SDS011;57745;42.524;12.052;2023-04-25T11:53:30;4.30;;;1.35;;
58366;SDS011;57745;42.524;12.052;2023-04-25T11:55:55;9.57;;;1.58;;
58366;SDS011;57745;42.524;12.052;2023-04-25T11:58:21;4.90;;;1.33;;
58366;SDS011;57745;42.524;12.052;2023-04-25T12:00:46;5.53;;;1.50;;
58366;SDS011;57745;42.524;12.052;2023-04-25T12:03:12;8.52;;;1.58;;
58366;SDS011;57745;42.524;12.052;2023-04-25T12:05:38;3.67;;;1.20;;
58366;SDS011;57745;42.524;12.052;2023-04-25T12:08:11;8.02;;;1.88;;
58366;SDS011;57745;42.524;12.052;2023-04-25T12:10:38;4.75;;;1.45;;
58366;SDS011;57745;42.524;12.052;2023-04-25T12:13:18;6.55;;;1.35;;
58366;SDS011;57745;42.524;12.052;2023-04-25T12:15:45;6.63;;;1.42;;
58366;SDS011;57745;42.524;12.052;2023-04-25T12:18:10;4.75;;;1.45;;
58366;SDS011;57745;42.524;12.052;2023-04-25T12:20:36;5.45;;;1.30;;
58366;SDS011;57745;42.524;12.052;2023-04-25T12:23:01;5.53;;;1.20;;
58366;SDS011;57745;42.524;12.052;2023-04-25T12:33:31;6.55;;;1.40;;
58366;SDS011;57745;42.524;12.052;2023-04-25T12:36:01;7.32;;;1.25;;
58366;SDS011;57745;42.524;12.052;2023-04-25T12:38:35;7.57;;;1.27;;
58366;SDS011;57745;42.524;12.052;2023-04-25T12:41:01;4.30;;;1.25;;
58366;SDS011;57745;42.524;12.052;2023-04-25T12:43:27;6.75;;;1.00;;
58366;SDS011;57745;42.524;12.052;2023-04-25T12:45:53;4.65;;;1.15;;
58366;SDS011;57745;42.524;12.052;2023-04-25T12:48:20;6.13;;;1.20;;
58366;SDS011;57745;42.524;12.052;2023-04-25T12:50:46;2.72;;;1.20;;
58366;SDS011;57745;42.524;12.052;2023-04-25T12:53:18;7.78;;;1.15;;
58366;SDS011;57745;42.524;12.052;2023-04-25T12:55:48;4.75;;;1.10;;
58366;SDS011;57745;42.524;12.052;2023-04-25T12:58:17;3.67;;;0.90;;
58366;SDS011;57745;42.524;12.052;2023-04-25T13:00:44;7.25;;;1.42;;
58366;SDS011;57745;42.524;12.052;2023-04-25T13:03:10;4.55;;;1.00;;
58366;SDS011;57745;42.524;12.052;2023-04-25T13:05:37;1.70;;;0.70;;
58366;SDS011;57745;42.524;12.052;2023-04-25T13:08:03;4.10;;;1.13;;
58366;SDS011;57745;42.524;12.052;2023-04-25T13:10:29;3.05;;;0.80;;
58366;SDS011;57745;42.524;12.052;2023-04-25T13:12:54;4.57;;;0.80;;
58366;SDS011;57745;42.524;12.052;2023-04-25T13:15:20;5.15;;;0.85;;
58366;SDS011;57745;42.524;12.052;2023-04-25T13:17:45;5.25;;;1.52;;
58366;SDS011;57745;42.524;12.052;2023-04-25T13:20:11;5.97;;;1.85;;
58366;SDS011;57745;42.524;12.052;2023-04-25T13:22:39;4.07;;;0.70;;
58366;SDS011;57745;42.524;12.052;2023-04-25T13:25:06;2.50;;;1.00;;
58366;SDS011;57745;42.524;12.052;2023-04-25T13:27:33;4.65;;;0.77;;
58366;SDS011;57745;42.524;12.052;2023-04-25T13:30:00;3.28;;;0.77;;
58366;SDS011;57745;42.524;12.052;2023-04-25T13:32:32;4.38;;;0.77;;
58366;SDS011;57745;42.524;12.052;2023-04-25T13:34:57;4.35;;;0.93;;
58366;SDS011;57745;42.524;12.052;2023-04-25T13:37:23;4.72;;;0.80;;
58366;SDS011;57745;42.524;12.052;2023-04-25T13:39:49;2.40;;;0.60;;
58366;SDS011;57745;42.524;12.052;2023-04-25T13:42:15;4.57;;;0.90;;
58366;SDS011;57745;42.524;12.052;2023-04-25T13:44:40;2.15;;;0.98;;
58366;SDS011;57745;42.524;12.052;2023-04-25T13:47:06;2.72;;;0.85;;
58366;SDS011;57745;42.524;12.052;2023-04-25T13:49:31;3.00;;;0.88;;
58366;SDS011;57745;42.524;12.052;2023-04-25T13:51:57;6.22;;;0.88;;
58366;SDS011;57745;42.524;12.052;2023-04-25T13:54:22;5.97;;;0.80;;
58366;SDS011;57745;42.524;12.052;2023-04-25T13:56:48;3.92;;;0.65;;
58366;SDS011;57745;42.524;12.052;2023-04-25T13:59:15;5.25;;;1.23;;
58366;SDS011;57745;42.524;12.052;2023-04-25T14:01:41;2.70;;;0.70;;
58366;SDS011;57745;42.524;12.052;2023-04-25T14:04:06;3.92;;;1.42;;
58366;SDS011;57745;42.524;12.052;2023-04-25T14:06:32;2.90;;;1.10;;
58366;SDS011;57745;42.524;12.052;2023-04-25T14:08:57;4.00;;;1.60;;
58366;SDS011;57745;42.524;12.052;2023-04-25T14:11:25;3.38;;;0.80;;
58366;SDS011;57745;42.524;12.052;2023-04-25T14:13:51;3.53;;;0.88;;
58366;SDS011;57745;42.524;12.052;2023-04-25T14:16:16;2.63;;;0.85;;
58366;SDS011;57745;42.524;12.052;2023-04-25T14:18:41;2.67;;;0.80;;
58366;SDS011;57745;42.524;12.052;2023-04-25T14:21:07;2.63;;;0.75;;
58366;SDS011;57745;42.524;12.052;2023-04-25T14:23:33;4.20;;;1.00;;
58366;SDS011;57745;42.524;12.052;2023-04-25T14:25:58;4.95;;;0.80;;
58366;SDS011;57745;42.524;12.052;2023-04-25T14:28:23;2.30;;;0.70;;
58366;SDS011;57745;42.524;12.052;2023-04-25T14:30:49;3.70;;;1.00;;
58366;SDS011;57745;42.524;12.052;2023-04-25T14:33:14;2.03;;;0.80;;
58366;SDS011;57745;42.524;12.052;2023-04-25T14:35:40;1.88;;;0.73;;
58366;SDS011;57745;42.524;12.052;2023-04-25T14:38:06;1.40;;;0.77;;
58366;SDS011;57745;42.524;12.052;2023-04-25T14:40:32;4.07;;;1.10;;
58366;SDS011;57745;42.524;12.052;2023-04-25T14:42:58;4.38;;;0.98;;
58366;SDS011;57745;42.524;12.052;2023-04-25T14:45:23;3.47;;;0.90;;
58366;SDS011;57745;42.524;12.052;2023-04-25T14:47:49;4.70;;;0.93;;
58366;SDS011;57745;42.524;12.052;2023-04-25T14:50:15;2.90;;;0.80;;